Terminal Aerodrome Forecast
Issued by NWS

Home | Current Version | Previous Version | Text Only | Print | Product List | Glossary On
Versions: 1 2 3 4 5 6 7 8 9 10 11 12 13 14 15 16 17 18
000
FTUS44 KTSA 291720
TAFXNA
TAF
KXNA 291720Z 2918/3018 33012G31KT P6SM -RA VCTS FEW018CB OVC025
      TEMPO 2918/2922 VRB20G30KT 1SM +TSRA OVC015CB
     FM292200 16012G22KT 4SM -TSRA BR BKN015CB
      TEMPO 2922/3002 1SM +TSRA OVC007CB
     FM300200 20011KT 4SM -TSRA OVC015CB
      TEMPO 3002/3006 2SM TSRA BR OVC007CB
     FM300600 19012KT 5SM -RA BR OVC007
     FM301500 20012G23KT P6SM OVC015=

USA.gov is the U.S. government's official web portal to all federal, state and local government web resources and services.